Metar

Report issued: 2018/01/19 at 01:20 UTC

Weather: Code: AUTO
Wind: light breeze from the north (350 degrees) at 5 knots (6 mph, 3 ms, Force 2)
Visibility: 10km or more
Cloud: overcast at 900 feet
Temperature: -4 C
Dewpoint: -4 C
Humidity: 74%
Pressure: 0998 hPa


Coded Weather Observations: 2018/01/19 01:20 ENTO 190120Z AUTO 35005KT 9999 OVC009/// M04/M04 Q0998

TAF

Forecast issued: 2018/01/18 at 21:45 UTC
Forecast valid: ENth from TO:00 to 1st until :00

Wind: moderate breeze from the south (182 degrees) at 13 knots (15 mph, 7 ms, Force 4)
Weather: Code: 1821/1918
Wind: gentle breeze from the north (360 degrees) at 8 knots (9 mph, 4 ms, Force 3)
Visibility: 10km or more
Cloud: overcast at 800 feet

From time to time between 18:00 and 21:00:
Cloud: scattered at 1000 feet
Cloud: broken at 2000 feet

Between 19:00 and 10:00 becoming:
Wind: gentle breeze from the southeast (140 degrees) at 10 knots (12 mph, 5 ms, Force 3)
Cloud: scattered at 500 feet
Cloud: broken at 1000 feet

From time to time between 19:00 and 12:00:
Visibility: 3000 metres
Weather: light snow
Weather: mist
Cloud: overcast at 400 feet


Coded Weather Forecast: 2018/01/18 21:45 TAF TAF AMD ENTO 182136Z 1821/1918 36008KT 9999 OVC008 TEMPO 1821/1910 SCT010 BKN020 BECMG 1910/1912 14010KT SCT005 BKN010 TEMPO 1912/1918 3000 -SN BR OVC004
Været nå